createdAt,value
2019-01-30T00:00:49.462Z,2.03
2019-01-30T00:03:19.693Z,2.03
2019-01-30T00:05:49.889Z,1.40
2019-01-30T00:08:19.913Z,1.00
2019-01-30T00:10:50.355Z,1.50
2019-01-30T00:13:21.294Z,1.57
2019-01-30T00:15:56.334Z,2.17
2019-01-30T00:18:23.657Z,1.30
2019-01-30T00:20:53.965Z,1.60
2019-01-30T00:23:24.594Z,1.70
2019-01-30T00:25:54.807Z,1.83
2019-01-30T00:28:25.485Z,1.47
2019-01-30T00:30:55.489Z,1.30
2019-01-30T00:33:25.782Z,1.20
2019-01-30T00:35:55.846Z,1.30
2019-01-30T00:38:25.818Z,1.70
2019-01-30T00:40:55.841Z,1.33
2019-01-30T00:43:25.904Z,1.20
2019-01-30T00:45:56.296Z,1.40
2019-01-30T00:48:26.273Z,0.90
2019-01-30T00:50:56.246Z,1.53
2019-01-30T00:53:26.725Z,1.10
2019-01-30T00:55:56.980Z,1.20
2019-01-30T00:58:27.958Z,1.40
2019-01-30T01:00:58.403Z,1.07
2019-01-30T01:03:28.818Z,1.67
2019-01-30T01:05:58.932Z,1.20
2019-01-30T01:08:29.128Z,1.43
2019-01-30T01:11:00.018Z,1.67
2019-01-30T01:13:30.333Z,1.40
2019-01-30T01:16:00.393Z,0.80
2019-01-30T01:18:30.918Z,1.27
2019-01-30T01:21:01.417Z,1.77
2019-01-30T01:23:32.021Z,1.10
2019-01-30T01:26:02.865Z,1.50
2019-01-30T01:28:33.433Z,1.00
2019-01-30T01:31:03.593Z,1.60
2019-01-30T01:33:33.648Z,1.60
2019-01-30T01:36:03.757Z,1.40
2019-01-30T01:38:33.793Z,1.60
2019-01-30T01:41:03.878Z,1.50
2019-01-30T01:43:34.233Z,1.63
2019-01-30T01:46:05.706Z,2.03
2019-01-30T01:48:35.690Z,1.30
2019-01-30T01:51:06.947Z,1.20
2019-01-30T01:53:37.123Z,2.60
2019-01-30T01:56:07.220Z,1.30
2019-01-30T01:58:37.300Z,1.70
2019-01-30T02:01:07.370Z,1.47
2019-01-30T02:03:37.844Z,1.87
2019-01-30T02:06:08.114Z,1.60
2019-01-30T02:08:38.137Z,2.10
2019-01-30T02:11:08.202Z,1.17
2019-01-30T02:13:38.305Z,1.93
2019-01-30T02:16:08.620Z,2.00
2019-01-30T02:18:39.242Z,1.40
2019-01-30T02:21:09.935Z,1.33
2019-01-30T02:23:40.237Z,1.53
2019-01-30T02:26:11.193Z,1.80
2019-01-30T02:28:42.284Z,1.83
2019-01-30T02:31:13.430Z,2.03
2019-01-30T02:33:43.854Z,1.27
2019-01-30T02:36:15.252Z,1.30
2019-01-30T02:38:45.554Z,1.60
2019-01-30T02:41:15.614Z,1.60
2019-01-30T02:43:45.863Z,1.77
2019-01-30T02:46:16.106Z,1.67
2019-01-30T02:48:46.497Z,1.17
2019-01-30T02:51:16.918Z,1.70
2019-01-30T02:53:47.081Z,1.50
2019-01-30T02:56:17.402Z,1.23
2019-01-30T02:58:48.913Z,1.50
2019-01-30T03:01:18.940Z,1.10
2019-01-30T03:03:49.210Z,1.50
2019-01-30T03:06:19.414Z,1.63
2019-01-30T03:08:49.413Z,1.80
2019-01-30T03:11:19.467Z,1.50
2019-01-30T03:13:49.759Z,1.60
2019-01-30T03:16:20.453Z,1.27
2019-01-30T03:18:51.019Z,1.73
2019-01-30T03:21:21.450Z,1.57
2019-01-30T03:23:51.673Z,1.60
2019-01-30T03:26:21.878Z,1.70
2019-01-30T03:28:51.866Z,1.50
2019-01-30T03:31:21.935Z,1.30
2019-01-30T03:33:52.227Z,1.17
2019-01-30T03:36:22.727Z,1.10
2019-01-30T03:38:53.665Z,1.17
2019-01-30T03:41:23.701Z,1.43
2019-01-30T03:43:54.030Z,2.30
2019-01-30T03:46:24.240Z,1.10
2019-01-30T03:48:54.520Z,1.10
2019-01-30T03:51:25.066Z,1.40
2019-01-30T03:53:55.245Z,1.50
2019-01-30T03:56:25.467Z,1.17
2019-01-30T03:58:55.458Z,1.17
2019-01-30T04:01:26.623Z,0.70
2019-01-30T04:03:57.293Z,1.33
2019-01-30T04:06:27.626Z,1.67
2019-01-30T04:08:57.640Z,1.67
2019-01-30T04:11:27.951Z,1.07
2019-01-30T04:14:00.584Z,1.20
2019-01-30T04:16:29.738Z,1.70
2019-01-30T04:18:59.850Z,1.10
2019-01-30T04:21:30.063Z,1.80
2019-01-30T04:24:01.175Z,1.50
2019-01-30T04:26:31.189Z,1.10
2019-01-30T04:29:01.557Z,1.00
2019-01-30T04:31:37.827Z,1.50
2019-01-30T04:34:04.263Z,1.20
2019-01-30T04:36:34.492Z,1.47
2019-01-30T04:39:07.049Z,1.53
2019-01-30T04:41:37.527Z,1.10
2019-01-30T04:44:07.576Z,1.70
2019-01-30T04:46:38.109Z,0.70
2019-01-30T04:49:08.550Z,1.73
2019-01-30T04:51:38.573Z,1.47
2019-01-30T04:54:08.573Z,1.73
2019-01-30T04:56:38.765Z,1.17
2019-01-30T04:59:08.708Z,1.20
2019-01-30T05:01:49.260Z,1.60
2019-01-30T05:04:10.326Z,1.93
2019-01-30T05:06:40.393Z,1.37
2019-01-30T05:09:11.574Z,1.10
2019-01-30T05:11:41.601Z,1.00
2019-01-30T05:14:12.635Z,1.10
2019-01-30T05:16:42.958Z,2.07
2019-01-30T05:19:13.014Z,1.00
2019-01-30T05:21:43.092Z,1.53
2019-01-30T05:24:13.142Z,0.97
2019-01-30T05:26:43.346Z,1.40
2019-01-30T05:29:13.973Z,1.10
2019-01-30T05:31:44.094Z,1.20
2019-01-30T05:34:23.778Z,1.30
2019-01-30T05:36:53.812Z,1.30
2019-01-30T05:39:25.133Z,0.90
2019-01-30T05:41:55.093Z,1.27
2019-01-30T05:44:25.263Z,1.10
2019-01-30T05:46:55.536Z,1.80
2019-01-30T05:49:25.602Z,1.03
2019-01-30T05:51:55.601Z,1.13
2019-01-30T05:54:25.652Z,1.00
2019-01-30T05:56:55.641Z,1.10
2019-01-30T05:59:25.625Z,1.10
2019-01-30T06:01:55.648Z,1.37
2019-01-30T06:04:25.744Z,1.07
2019-01-30T06:06:55.965Z,0.90
2019-01-30T06:09:26.349Z,1.17
2019-01-30T06:11:56.430Z,1.37
2019-01-30T06:14:26.410Z,0.90
2019-01-30T06:16:56.465Z,1.00
2019-01-30T06:19:27.792Z,1.13
2019-01-30T06:21:57.844Z,0.97
2019-01-30T06:24:27.913Z,1.30
2019-01-30T06:26:57.957Z,1.10
2019-01-30T06:29:27.929Z,1.20
2019-01-30T06:31:57.952Z,1.33
2019-01-30T06:34:28.429Z,0.90
2019-01-30T06:36:58.466Z,1.13
2019-01-30T06:39:28.460Z,1.50
2019-01-30T06:41:58.615Z,1.20
2019-01-30T06:44:28.617Z,0.90
2019-01-30T06:46:58.877Z,1.07
2019-01-30T06:49:29.117Z,1.40
2019-01-30T06:51:59.141Z,1.00
2019-01-30T06:54:29.163Z,1.10
2019-01-30T06:56:59.151Z,1.30
2019-01-30T06:59:29.137Z,1.20
2019-01-30T07:01:59.414Z,1.00
2019-01-30T07:04:29.485Z,1.40
2019-01-30T07:06:59.831Z,1.83
2019-01-30T07:09:30.177Z,1.00
2019-01-30T07:12:00.320Z,1.90
2019-01-30T07:14:30.280Z,1.10
2019-01-30T07:17:00.293Z,1.20
2019-01-30T07:19:30.530Z,1.13
2019-01-30T07:22:00.571Z,1.33
2019-01-30T07:24:31.843Z,1.13
2019-01-30T07:27:01.861Z,1.20
2019-01-30T07:29:32.254Z,1.03
2019-01-30T07:32:02.322Z,1.40
2019-01-30T07:34:33.277Z,1.50
2019-01-30T07:37:03.330Z,1.27
2019-01-30T07:39:33.764Z,1.03
2019-01-30T07:42:03.777Z,1.10
2019-01-30T07:44:33.853Z,1.97
2019-01-30T07:47:04.191Z,1.40
2019-01-30T07:49:34.598Z,1.67
2019-01-30T07:52:05.119Z,2.00
2019-01-30T07:54:35.118Z,1.70
2019-01-30T07:57:05.188Z,1.10
2019-01-30T07:59:35.169Z,1.50
2019-01-30T08:02:05.178Z,1.10
2019-01-30T08:04:35.105Z,1.20
2019-01-30T08:07:05.259Z,1.53
2019-01-30T08:09:35.202Z,1.60
2019-01-30T08:12:05.178Z,1.10
2019-01-30T08:14:35.338Z,1.23
2019-01-30T08:17:05.707Z,1.50
2019-01-30T08:19:35.702Z,1.80
2019-01-30T08:22:05.681Z,1.73
2019-01-30T08:24:35.981Z,2.20
2019-01-30T08:27:06.325Z,3.60
2019-01-30T08:29:36.477Z,3.10
2019-01-30T08:32:06.951Z,1.67
2019-01-30T08:34:37.093Z,2.13
2019-01-30T08:37:07.324Z,2.03
2019-01-30T08:39:37.277Z,1.10
2019-01-30T08:42:07.385Z,1.10
2019-01-30T08:44:46.731Z,0.90
2019-01-30T08:47:09.265Z,1.10
2019-01-30T08:49:40.343Z,1.00
2019-01-30T08:52:10.378Z,1.30
2019-01-30T08:54:40.335Z,1.10
2019-01-30T08:57:10.850Z,1.30
2019-01-30T08:59:40.861Z,1.30
2019-01-30T09:02:10.838Z,1.50
2019-01-30T09:04:40.893Z,1.50
2019-01-30T09:07:11.005Z,1.50
2019-01-30T09:09:40.955Z,1.60
2019-01-30T09:12:10.967Z,1.37
2019-01-30T09:14:40.955Z,1.20
2019-01-30T09:17:11.040Z,1.30
2019-01-30T09:19:41.444Z,1.70
2019-01-30T09:22:11.521Z,1.20
2019-01-30T09:24:41.745Z,1.33
2019-01-30T09:27:11.842Z,3.60
2019-01-30T09:29:41.988Z,1.67
2019-01-30T09:32:12.077Z,1.87
2019-01-30T09:34:42.066Z,1.67
2019-01-30T09:37:12.104Z,2.07
2019-01-30T09:39:42.206Z,3.03
2019-01-30T09:42:12.413Z,3.20
2019-01-30T09:44:42.618Z,1.47
2019-01-30T09:47:12.685Z,1.37
2019-01-30T09:49:42.729Z,1.13
2019-01-30T09:52:12.788Z,1.27
2019-01-30T09:54:42.802Z,2.00
2019-01-30T09:57:12.967Z,1.70
2019-01-30T09:59:43.065Z,1.60
2019-01-30T10:02:13.078Z,1.80
2019-01-30T10:04:43.112Z,1.90
2019-01-30T10:07:13.264Z,1.03
2019-01-30T10:09:44.195Z,0.80
2019-01-30T10:12:14.205Z,1.70
2019-01-30T10:14:44.204Z,2.70
2019-01-30T10:17:14.224Z,1.80
2019-01-30T10:19:44.216Z,1.63
2019-01-30T10:22:14.864Z,2.47
2019-01-30T10:24:44.969Z,1.77
2019-01-30T10:27:15.005Z,1.83
2019-01-30T10:29:45.093Z,2.90
2019-01-30T10:32:15.265Z,1.73
2019-01-30T10:34:45.312Z,1.20
2019-01-30T10:37:15.339Z,1.00
2019-01-30T10:39:45.645Z,2.37
2019-01-30T10:42:15.636Z,1.50
2019-01-30T10:44:45.911Z,1.67
2019-01-30T10:47:15.953Z,3.77
2019-01-30T10:49:46.072Z,3.53
2019-01-30T10:52:16.246Z,2.10
2019-01-30T10:54:46.466Z,1.90
2019-01-30T10:57:16.741Z,1.63
2019-01-30T10:59:47.451Z,1.60
2019-01-30T11:02:17.596Z,1.60
2019-01-30T11:04:48.093Z,1.30
2019-01-30T11:07:18.449Z,2.67
2019-01-30T11:09:48.762Z,2.60
2019-01-30T11:12:18.787Z,1.43
2019-01-30T11:14:48.950Z,1.40
2019-01-30T11:17:18.978Z,1.10
2019-01-30T11:19:48.973Z,1.40
2019-01-30T11:22:18.949Z,1.23
2019-01-30T11:24:49.041Z,1.00
2019-01-30T11:27:19.089Z,1.30
2019-01-30T11:29:49.352Z,1.63
2019-01-30T11:32:19.623Z,1.37
2019-01-30T11:34:49.629Z,1.83
2019-01-30T11:37:19.633Z,1.43
2019-01-30T11:39:49.628Z,1.27
2019-01-30T11:42:19.870Z,2.57
2019-01-30T11:44:50.055Z,1.70
2019-01-30T11:47:20.048Z,1.70
2019-01-30T11:49:50.156Z,1.33
2019-01-30T11:52:20.443Z,1.10
2019-01-30T11:54:50.809Z,1.23
2019-01-30T11:57:21.031Z,1.50
2019-01-30T11:59:51.650Z,1.10
2019-01-30T12:02:21.764Z,1.40
2019-01-30T12:04:51.769Z,1.83
2019-01-30T12:07:21.958Z,1.00
2019-01-30T12:09:51.989Z,1.43
2019-01-30T12:12:22.088Z,1.10
2019-01-30T12:14:52.064Z,1.10
2019-01-30T12:17:22.089Z,1.10
2019-01-30T12:19:52.047Z,1.23
2019-01-30T12:22:22.062Z,1.30
2019-01-30T12:24:52.717Z,1.10
2019-01-30T12:27:22.725Z,1.20
2019-01-30T12:29:52.793Z,1.07
2019-01-30T12:32:22.786Z,1.40
2019-01-30T12:34:52.848Z,1.63
2019-01-30T12:37:22.889Z,1.10
2019-01-30T12:39:52.865Z,1.00
2019-01-30T12:42:23.030Z,0.90
2019-01-30T12:44:54.773Z,0.90
2019-01-30T12:47:24.842Z,1.10
2019-01-30T12:49:54.941Z,1.10
2019-01-30T12:52:24.965Z,0.97
2019-01-30T12:54:55.039Z,1.07
2019-01-30T12:57:25.132Z,0.83
2019-01-30T12:59:55.325Z,1.33
2019-01-30T13:02:25.473Z,0.87
2019-01-30T13:04:55.511Z,1.10
2019-01-30T13:07:25.542Z,0.93
2019-01-30T13:09:55.548Z,1.03
2019-01-30T13:12:25.537Z,1.10
2019-01-30T13:14:55.598Z,1.10
2019-01-30T13:17:25.714Z,1.00
2019-01-30T13:19:55.720Z,1.30
2019-01-30T13:22:25.780Z,1.30
2019-01-30T13:24:56.335Z,1.43
2019-01-30T13:27:26.741Z,1.10
2019-01-30T13:29:56.728Z,1.10
2019-01-30T13:32:26.725Z,1.93
2019-01-30T13:34:56.789Z,1.97
2019-01-30T13:37:26.805Z,1.17
2019-01-30T13:39:57.547Z,1.10
2019-01-30T13:42:27.553Z,1.00
2019-01-30T13:44:58.274Z,1.33
2019-01-30T13:47:28.261Z,1.10
2019-01-30T13:49:58.401Z,1.07
2019-01-30T13:52:28.500Z,1.17
2019-01-30T13:54:58.467Z,1.33
2019-01-30T13:57:28.589Z,1.00
2019-01-30T13:59:58.646Z,0.90
2019-01-30T14:02:29.441Z,1.00
2019-01-30T14:04:59.870Z,1.10
2019-01-30T14:07:30.909Z,1.40
2019-01-30T14:10:01.297Z,1.20
2019-01-30T14:12:31.435Z,1.40
2019-01-30T14:15:01.429Z,1.13
2019-01-30T14:17:32.477Z,1.30
2019-01-30T14:20:02.937Z,1.17
2019-01-30T14:22:36.057Z,1.03
2019-01-30T14:25:06.896Z,1.03
2019-01-30T14:27:39.720Z,1.17
2019-01-30T14:30:19.316Z,1.73
2019-01-30T14:32:49.671Z,1.47
2019-01-30T14:35:20.705Z,1.40
2019-01-30T14:37:50.721Z,1.40
2019-01-30T14:40:21.498Z,1.30
2019-01-30T14:42:52.194Z,1.10
2019-01-30T14:45:22.705Z,1.10
2019-01-30T14:47:52.943Z,1.10
2019-01-30T14:50:24.483Z,1.10
2019-01-30T14:52:54.680Z,1.10
2019-01-30T14:55:25.197Z,1.23
2019-01-30T14:57:56.363Z,1.10
2019-01-30T15:00:31.428Z,1.40
2019-01-30T15:03:02.100Z,1.17
2019-01-30T15:05:32.139Z,0.97
2019-01-30T15:08:02.169Z,1.20
2019-01-30T15:10:32.689Z,1.30
2019-01-30T15:13:02.855Z,1.70
2019-01-30T15:15:33.644Z,2.17
2019-01-30T15:18:03.698Z,1.33
2019-01-30T15:20:35.225Z,1.30
2019-01-30T15:23:06.623Z,1.80
2019-01-30T15:25:37.050Z,1.50
2019-01-30T15:28:07.525Z,2.00
2019-01-30T15:30:48.536Z,1.30
2019-01-30T15:33:18.874Z,1.27
2019-01-30T15:35:49.141Z,1.23
2019-01-30T15:38:20.783Z,1.70
2019-01-30T15:40:51.185Z,1.20
2019-01-30T15:43:21.845Z,1.93
2019-01-30T15:45:51.893Z,1.10
2019-01-30T15:48:22.318Z,1.70
2019-01-30T15:50:52.350Z,1.47
2019-01-30T15:53:24.099Z,1.50
2019-01-30T15:55:54.216Z,1.20
2019-01-30T15:58:24.309Z,1.37
2019-01-30T16:01:30.063Z,1.30
2019-01-30T16:04:00.185Z,1.30
2019-01-30T16:06:30.204Z,1.83
2019-01-30T16:09:00.214Z,1.40
2019-01-30T16:11:30.641Z,1.40
2019-01-30T16:14:00.723Z,1.50
2019-01-30T16:16:30.742Z,1.13
2019-01-30T16:19:01.145Z,1.80
2019-01-30T16:21:31.197Z,1.20
2019-01-30T16:24:01.209Z,1.57
2019-01-30T16:26:31.856Z,1.30
2019-01-30T16:29:01.987Z,1.53
2019-01-30T16:31:31.989Z,1.10
2019-01-30T16:34:02.205Z,2.00
2019-01-30T16:36:33.476Z,1.57
2019-01-30T16:39:04.810Z,1.57
2019-01-30T16:41:35.029Z,1.70
2019-01-30T16:44:05.475Z,1.93
2019-01-30T16:46:37.049Z,1.40
2019-01-30T16:49:10.320Z,1.20
2019-01-30T16:51:40.660Z,2.07
2019-01-30T16:54:11.676Z,1.30
2019-01-30T16:56:42.009Z,1.60
2019-01-30T16:59:12.022Z,1.60
2019-01-30T17:01:45.012Z,1.70
2019-01-30T17:04:14.978Z,2.17
2019-01-30T17:06:45.101Z,1.37
2019-01-30T17:09:15.158Z,2.00
2019-01-30T17:11:45.273Z,1.50
2019-01-30T17:14:15.434Z,1.50
2019-01-30T17:16:45.609Z,1.60
2019-01-30T17:19:15.797Z,2.00
2019-01-30T17:21:45.844Z,1.70
2019-01-30T17:24:16.058Z,1.73
2019-01-30T17:26:46.125Z,2.10
2019-01-30T17:29:16.287Z,1.77
2019-01-30T17:31:46.295Z,2.73
2019-01-30T17:34:16.513Z,2.57
2019-01-30T17:36:46.580Z,1.63
2019-01-30T17:39:16.632Z,1.47
2019-01-30T17:41:46.816Z,2.10
2019-01-30T17:44:16.846Z,1.70
2019-01-30T17:46:46.970Z,2.03
2019-01-30T17:49:19.065Z,1.50
2019-01-30T17:51:49.817Z,1.60
2019-01-30T17:54:19.825Z,1.53
2019-01-30T17:56:50.109Z,2.57
2019-01-30T17:59:20.765Z,2.20
2019-01-30T18:01:50.957Z,2.03
2019-01-30T18:04:21.130Z,2.20
2019-01-30T18:06:51.136Z,2.10
2019-01-30T18:09:21.201Z,1.60
2019-01-30T18:11:52.114Z,2.03
2019-01-30T18:14:23.495Z,1.80
2019-01-30T18:16:55.999Z,2.17
2019-01-30T18:19:26.051Z,1.77
2019-01-30T18:21:56.331Z,1.80
2019-01-30T18:24:26.565Z,1.80
2019-01-30T18:26:56.573Z,2.00
2019-01-30T18:29:26.630Z,1.87
2019-01-30T18:31:56.933Z,1.93
2019-01-30T18:34:26.933Z,2.77
2019-01-30T18:36:56.949Z,2.73
2019-01-30T18:39:26.994Z,1.60
2019-01-30T18:41:58.049Z,2.17
2019-01-30T18:44:28.277Z,2.20
2019-01-30T18:46:58.552Z,2.03
2019-01-30T18:49:28.489Z,2.87
2019-01-30T18:51:59.099Z,3.27
2019-01-30T18:54:31.013Z,3.10
2019-01-30T18:57:01.007Z,2.70
2019-01-30T18:59:31.028Z,1.83
2019-01-30T19:02:01.165Z,3.73
2019-01-30T19:04:31.400Z,2.70
2019-01-30T19:07:01.438Z,2.30
2019-01-30T19:09:31.597Z,2.13
2019-01-30T19:12:01.696Z,2.30
2019-01-30T19:14:31.855Z,2.13
2019-01-30T19:17:01.887Z,2.17
2019-01-30T19:19:31.930Z,2.03
2019-01-30T19:22:02.221Z,1.90
2019-01-30T19:24:35.294Z,2.37
2019-01-30T19:27:05.479Z,4.10
2019-01-30T19:29:35.915Z,7.50
2019-01-30T19:32:06.474Z,4.10
2019-01-30T19:34:36.580Z,4.03
2019-01-30T19:37:07.041Z,4.23
2019-01-30T19:39:37.194Z,8.60
2019-01-30T19:42:07.506Z,3.37
2019-01-30T19:44:37.777Z,2.50
2019-01-30T19:47:07.982Z,2.67
2019-01-30T19:49:38.005Z,2.23
2019-01-30T19:52:08.983Z,3.20
2019-01-30T19:54:39.113Z,3.53
2019-01-30T19:57:09.569Z,2.23
2019-01-30T19:59:40.030Z,2.53
2019-01-30T20:02:10.881Z,2.70
2019-01-30T20:04:41.249Z,2.30
2019-01-30T20:07:14.935Z,2.87
2019-01-30T20:09:44.975Z,2.07
2019-01-30T20:12:15.313Z,1.90
2019-01-30T20:14:48.461Z,2.80
2019-01-30T20:17:22.961Z,2.33
2019-01-30T20:19:54.845Z,2.10
2019-01-30T20:22:26.293Z,2.60
2019-01-30T20:24:56.678Z,1.90
2019-01-30T20:27:26.701Z,2.60
2019-01-30T20:29:56.858Z,3.17
2019-01-30T20:32:29.865Z,3.00
2019-01-30T20:35:01.407Z,2.20
2019-01-30T20:37:37.689Z,3.00
2019-01-30T20:40:14.214Z,3.40
2019-01-30T20:42:44.557Z,2.87
2019-01-30T20:45:15.001Z,2.43
2019-01-30T20:47:46.588Z,2.57
2019-01-30T20:50:18.639Z,2.90
2019-01-30T20:52:48.890Z,2.80
2019-01-30T20:55:21.106Z,3.27
2019-01-30T20:57:52.290Z,2.80
2019-01-30T21:00:27.604Z,2.37
2019-01-30T21:02:57.991Z,2.77
2019-01-30T21:05:32.452Z,2.20
2019-01-30T21:08:04.768Z,2.93
2019-01-30T21:10:37.940Z,2.10
2019-01-30T21:13:08.901Z,2.40
2019-01-30T21:15:39.608Z,1.87
2019-01-30T21:18:09.799Z,1.90
2019-01-30T21:20:40.965Z,2.87
2019-01-30T21:23:13.471Z,2.17
2019-01-30T21:25:43.601Z,1.97
2019-01-30T21:28:13.853Z,2.47
2019-01-30T21:30:44.220Z,2.70
2019-01-30T21:33:17.524Z,2.47
2019-01-30T21:35:47.843Z,3.40
2019-01-30T21:38:17.841Z,2.37
2019-01-30T21:40:47.835Z,2.30
2019-01-30T21:43:17.957Z,2.20
2019-01-30T21:45:52.610Z,1.83
2019-01-30T21:48:26.465Z,2.13
2019-01-30T21:50:56.516Z,2.50
2019-01-30T21:53:26.940Z,2.00
2019-01-30T21:55:57.116Z,2.00
2019-01-30T21:58:27.245Z,2.43
2019-01-30T22:00:57.892Z,1.80
2019-01-30T22:03:29.017Z,1.80
2019-01-30T22:05:59.262Z,1.90
2019-01-30T22:08:30.770Z,2.67
2019-01-30T22:11:01.949Z,1.80
2019-01-30T22:13:35.956Z,2.23
2019-01-30T22:16:06.499Z,1.90
2019-01-30T22:18:41.478Z,2.70
2019-01-30T22:21:12.241Z,2.63
2019-01-30T22:23:45.047Z,2.33
2019-01-30T22:26:15.903Z,1.80
2019-01-30T22:28:45.964Z,2.00
2019-01-30T22:31:16.996Z,1.73
2019-01-30T22:33:47.290Z,1.83
2019-01-30T22:36:17.473Z,1.90
2019-01-30T22:38:47.602Z,2.13
2019-01-30T22:41:19.325Z,2.20
2019-01-30T22:43:49.354Z,2.00
2019-01-30T22:46:21.265Z,2.40
2019-01-30T22:48:51.914Z,1.87
2019-01-30T22:51:22.397Z,2.07
2019-01-30T22:53:52.873Z,1.90
2019-01-30T22:56:23.308Z,2.50
2019-01-30T22:58:53.342Z,1.50
2019-01-30T23:01:57.161Z,1.50
2019-01-30T23:05:03.780Z,1.73
2019-01-30T23:08:23.170Z,1.80
2019-01-30T23:11:24.985Z,1.47
2019-01-30T23:14:07.902Z,2.20
2019-01-30T23:17:29.736Z,2.00
2019-01-30T23:20:22.568Z,1.80
2019-01-30T23:23:29.383Z,1.50
2019-01-30T23:26:04.495Z,1.77
2019-01-30T23:29:02.898Z,1.90
2019-01-30T23:32:17.019Z,2.17
2019-01-30T23:35:31.621Z,1.67
2019-01-30T23:38:34.451Z,1.63
2019-01-30T23:41:32.333Z,1.60
2019-01-30T23:44:47.306Z,1.80
2019-01-30T23:47:59.948Z,1.70
2019-01-30T23:50:52.492Z,1.40
2019-01-30T23:54:13.049Z,1.90
2019-01-30T23:57:11.270Z,1.80
